Search for airport 
image banner adimage banner ad
image banner ad

VEBA - Kolkata (Behala)

Located in , India

ICAO - VEBA, IATA -

Data provided by Airmate  

General information

Coordinates: N22°30'3" E88°17'50"
Elevation is 10 feet MSL.
 
Rated:
View ratings: [VIEW]


View others Airports in West Bengal

Operational data

Open for public use
Current time UTC:
Current local time:
Weather at : VECC - Kolkata ( 23 km )
METAR: VECC 202000Z 00000KT 3200 HZ FEW020 SCT100 28/26 Q1007 NOSIG
TAF: TAF VECC 201700Z 2018/2103 19005KT 3200 HZ SCT018 BKN100 BECMG 2021/2023 00000KT 2800 HZ BECMG 2102/2103 3500 HZ
View NOTAMs / SUP AIP / TFR affecting this airport [VIEW]
Communications frequencies: [VIEW]

Runways:

RWY identifierQFULength (ft)Width (ft)SurfaceLDA (ft)
182830100asphalt
362830100asphalt

Airport contact information

Address: India

Satellite view of VEBA